Time;durP1;ratioP1;P1;durP2;ratioP2;P2;SDS_P1;SDS_P2;PMS_P1;PMS_P2;Temp;Humidity;BMP_temperature;BMP_pressure;BME280_temperature;BME280_humidity;BME280_pressure;Samples;Min_cycle;Max_cycle;Signal;HPM_P1;HPM_P2
2023/10/04 00:00:21;;;;;;;11.90;2.47;;;;;;;12.11;100.00;102214.97;4985232;28;20050;-66
2023/10/04 00:02:50;;;;;;;14.65;3.33;;;;;;;11.99;100.00;102229.00;4980403;28;20168;-66
2023/10/04 00:05:17;;;;;;;10.55;2.35;;;;;;;11.98;100.00;102219.53;4982143;28;20034;-66
2023/10/04 00:07:47;;;;;;;10.38;2.20;;;;;;;11.99;100.00;102222.03;4984873;28;20045;-66
2023/10/04 00:10:14;;;;;;;6.28;2.03;;;;;;;12.02;100.00;102231.34;4980843;28;20060;-66
2023/10/04 00:12:41;;;;;;;10.32;1.80;;;;;;;11.99;100.00;102231.59;4984783;28;20220;-66
2023/10/04 00:15:09;;;;;;;14.43;2.20;;;;;;;11.97;100.00;102233.50;4979454;28;20043;-66
2023/10/04 00:17:37;;;;;;;5.57;1.90;;;;;;;11.93;100.00;102234.72;4984449;28;20105;-66
2023/10/04 00:20:08;;;;;;;11.18;2.60;;;;;;;11.94;100.00;102234.59;4977651;28;20412;-66
2023/10/04 00:22:34;;;;;;;11.73;1.83;;;;;;;11.91;100.00;102236.63;4979941;28;20053;-66
2023/10/04 00:25:03;;;;;;;9.60;1.80;;;;;;;11.81;100.00;102236.53;4986965;28;20043;-66
2023/10/04 00:27:28;;;;;;;9.95;2.05;;;;;;;11.84;100.00;102244.09;4976759;28;20043;-66
2023/10/04 00:29:54;;;;;;;10.73;2.22;;;;;;;11.74;100.00;102246.63;4962872;28;20039;-66
2023/10/04 00:32:20;;;;;;;13.55;2.45;;;;;;;11.74;100.00;102246.63;4979362;28;20053;-66
2023/10/04 00:34:46;;;;;;;10.27;2.53;;;;;;;11.90;100.00;102250.56;4975216;28;20605;-66
2023/10/04 00:37:11;;;;;;;7.13;2.25;;;;;;;11.88;100.00;102259.31;4979548;28;20069;-66
2023/10/04 00:39:38;;;;;;;9.60;2.33;;;;;;;11.83;100.00;102258.88;4979510;28;20038;-66
2023/10/04 00:42:03;;;;;;;14.88;2.00;;;;;;;11.76;100.00;102267.31;4981430;28;20560;-66
2023/10/04 00:44:33;;;;;;;13.05;2.22;;;;;;;11.81;100.00;102265.97;4983263;28;20034;-66
2023/10/04 00:46:59;;;;;;;17.70;3.00;;;;;;;11.76;100.00;102267.31;4977691;28;20044;-66
2023/10/04 00:49:24;;;;;;;14.00;3.05;;;;;;;11.90;100.00;102272.19;4981883;28;20051;-66
2023/10/04 00:51:51;;;;;;;8.35;2.60;;;;;;;11.77;100.00;102268.94;4984746;28;20085;-66
2023/10/04 00:54:16;;;;;;;8.10;2.30;;;;;;;11.72;100.00;102266.72;4983526;28;20478;-66
2023/10/04 00:56:43;;;;;;;12.27;2.70;;;;;;;11.69;100.00;102254.81;4986498;28;20032;-68
2023/10/04 00:59:09;;;;;;;10.20;2.10;;;;;;;11.73;100.00;102270.16;4995166;28;20035;-66
2023/10/04 01:01:40;;;;;;;8.65;2.50;;;;;;;11.86;100.00;102268.16;4982351;28;20033;-66
2023/10/04 01:04:07;;;;;;;8.00;2.20;;;;;;;11.70;100.00;102271.25;4985968;28;20054;-67
2023/10/04 01:06:35;;;;;;;14.27;2.45;;;;;;;11.68;100.00;102275.75;4985772;28;20148;-66
2023/10/04 01:09:01;;;;;;;11.05;2.25;;;;;;;11.63;100.00;102270.91;4985951;28;20037;-66
2023/10/04 01:11:32;;;;;;;14.70;2.35;;;;;;;11.74;100.00;102269.22;4985995;28;20038;-66
2023/10/04 01:14:09;;;;;;;10.18;2.20;;;;;;;11.70;100.00;102268.63;4980212;28;20038;-66
2023/10/04 01:16:41;;;;;;;5.05;1.77;;;;;;;11.60;100.00;102271.19;4983925;28;20547;-66
2023/10/04 01:19:07;;;;;;;6.30;1.80;;;;;;;11.68;100.00;102267.94;4985819;28;20104;-67
2023/10/04 01:21:33;;;;;;;13.45;2.55;;;;;;;11.68;100.00;102267.94;4984273;28;20436;-66
2023/10/04 01:24:03;;;;;;;12.75;2.15;;;;;;;11.61;100.00;102270.22;4984301;28;20096;-68
2023/10/04 01:26:28;;;;;;;11.82;2.72;;;;;;;11.55;100.00;102269.91;4984672;28;20026;-66
2023/10/04 01:28:55;;;;;;;13.13;2.80;;;;;;;11.62;100.00;102266.69;4981572;28;20118;-66
2023/10/04 01:31:21;;;;;;;11.43;2.53;;;;;;;11.65;100.00;102269.00;4986451;28;20125;-66
2023/10/04 01:33:47;;;;;;;9.20;2.20;;;;;;;11.67;100.00;102267.09;4984143;28;20042;-66
2023/10/04 01:36:13;;;;;;;7.25;1.77;;;;;;;11.67;100.00;102272.28;4986465;28;20436;-66
2023/10/04 01:38:39;;;;;;;11.68;2.25;;;;;;;11.60;100.00;102271.19;4984275;28;20034;-66
2023/10/04 01:41:05;;;;;;;14.80;2.47;;;;;;;11.62;100.00;102266.69;4985434;28;20034;-66
2023/10/04 01:43:30;;;;;;;12.55;2.35;;;;;;;11.57;100.00;102271.44;4972676;28;20042;-66
2023/10/04 01:45:58;;;;;;;12.23;2.25;;;;;;;11.67;100.00;102269.69;4984412;28;20030;-66
2023/10/04 01:48:37;;;;;;;8.90;1.90;;;;;;;11.54;100.00;102265.66;4982512;28;20414;-66
2023/10/04 01:51:04;;;;;;;10.52;2.17;;;;;;;11.53;100.00;102275.22;4980501;28;20039;-67
2023/10/04 01:53:29;;;;;;;9.93;2.25;;;;;;;11.62;100.00;102273.63;4986886;28;20403;-66
2023/10/04 01:55:56;;;;;;;15.75;2.33;;;;;;;11.63;100.00;102275.28;4966649;28;20516;-66
2023/10/04 01:58:23;;;;;;;15.98;2.58;;;;;;;11.57;100.00;102281.81;4986985;28;20051;-66
2023/10/04 02:00:53;;;;;;;14.63;2.67;;;;;;;11.64;100.00;102275.16;4999460;28;20490;-66
2023/10/04 02:03:22;;;;;;;14.95;2.03;;;;;;;11.68;100.00;102283.53;4981399;28;20100;-66
2023/10/04 02:05:56;;;;;;;11.50;2.03;;;;;;;11.64;100.00;102274.31;4964799;28;20098;-66
2023/10/04 02:08:22;;;;;;;8.90;2.65;;;;;;;11.59;100.00;102272.13;4986460;28;20048;-66
2023/10/04 02:10:50;;;;;;;12.68;2.30;;;;;;;11.55;100.00;102277.72;4983983;28;20038;-66
2023/10/04 02:13:17;;;;;;;9.77;1.75;;;;;;;11.59;100.00;102274.72;4984604;28;20508;-66
2023/10/04 02:15:47;;;;;;;12.13;1.85;;;;;;;11.62;100.00;102277.06;4969847;28;20125;-66
2023/10/04 02:18:13;;;;;;;4.10;2.10;;;;;;;11.56;100.00;102281.94;4984075;28;20072;-66
2023/10/04 02:20:39;;;;;;;11.07;3.03;;;;;;;11.53;100.00;102284.78;4985576;28;20157;-66
2023/10/04 02:23:07;;;;;;;15.43;2.80;;;;;;;11.72;100.00;102284.91;4984972;28;20037;-66
2023/10/04 02:25:33;;;;;;;13.57;2.30;;;;;;;11.77;100.00;102280.19;4983552;28;20038;-66
2023/10/04 02:28:08;;;;;;;14.57;2.58;;;;;;;11.78;100.00;102275.78;4982501;28;20525;-66
2023/10/04 02:30:34;;;;;;;15.35;2.70;;;;;;;11.74;100.00;102277.81;4979798;28;20049;-66
2023/10/04 02:33:00;;;;;;;10.18;2.10;;;;;;;11.69;100.00;102270.38;4972158;28;20586;-66
2023/10/04 02:35:27;;;;;;;11.55;2.25;;;;;;;11.76;100.00;102275.09;4985361;28;20042;-66
2023/10/04 02:38:00;;;;;;;12.70;2.28;;;;;;;11.77;100.00;102280.19;4984269;28;20128;-66
2023/10/04 02:40:32;;;;;;;10.43;1.92;;;;;;;11.79;100.00;102275.66;4982436;28;20520;-66
2023/10/04 02:42:58;;;;;;;8.73;2.07;;;;;;;11.86;100.00;102276.78;4969017;28;20560;-66
2023/10/04 02:45:26;;;;;;;11.48;2.40;;;;;;;11.93;100.00;102276.31;4987335;28;20561;-66
2023/10/04 02:47:53;;;;;;;9.35;1.98;;;;;;;11.81;100.00;102278.13;4978299;28;20066;-66
2023/10/04 02:50:21;;;;;;;9.15;2.40;;;;;;;11.82;100.00;102279.78;4989051;28;20044;-66
2023/10/04 02:52:47;;;;;;;15.55;2.72;;;;;;;11.84;100.00;102276.09;4984112;28;20401;-66
2023/10/04 02:55:17;;;;;;;10.50;2.10;;;;;;;11.85;100.00;102269.13;4972819;28;20125;-66
2023/10/04 02:57:45;;;;;;;15.82;2.85;;;;;;;11.90;100.00;102277.38;4967022;28;20516;-66
2023/10/04 03:00:17;;;;;;;13.57;1.88;;;;;;;11.88;100.00;102274.06;4982256;28;20049;-66
2023/10/04 03:02:49;;;;;;;8.70;1.80;;;;;;;12.00;100.00;102273.06;4985215;28;20058;-66
2023/10/04 03:05:18;;;;;;;13.93;2.83;;;;;;;11.85;100.00;102282.94;4970354;28;20525;-66
2023/10/04 03:07:50;;;;;;;14.10;1.98;;;;;;;11.88;100.00;102274.91;4963311;28;20045;-66
2023/10/04 03:10:23;;;;;;;9.48;2.00;;;;;;;11.95;100.00;102274.41;4981704;28;20122;-66
2023/10/04 03:12:52;;;;;;;7.30;2.10;;;;;;;12.00;100.00;102274.84;4984189;28;20416;-66
2023/10/04 03:15:23;;;;;;;16.58;2.72;;;;;;;11.95;100.00;102280.44;4983165;28;20038;-66
2023/10/04 03:17:53;;;;;;;10.82;1.92;;;;;;;11.94;100.00;102277.94;4980278;28;20392;-66
2023/10/04 03:20:20;;;;;;;12.40;1.88;;;;;;;11.86;100.00;102271.59;4995744;28;20060;-66
2023/10/04 03:22:48;;;;;;;12.27;2.17;;;;;;;11.86;100.00;102270.75;5000983;28;20096;-66
2023/10/04 03:25:17;;;;;;;9.50;1.63;;;;;;;11.77;100.00;102277.56;4981169;28;20093;-66
2023/10/04 03:27:44;;;;;;;20.50;2.88;;;;;;;11.84;100.00;102281.28;4981996;28;20038;-66
2023/10/04 03:30:16;;;;;;;13.30;2.17;;;;;;;11.77;100.00;102282.78;4969301;28;20042;-66
2023/10/04 03:32:43;;;;;;;6.68;2.10;;;;;;;11.80;100.00;102284.28;4983891;28;20619;-66
2023/10/04 03:35:14;;;;;;;13.00;1.77;;;;;;;11.83;100.00;102294.44;4983808;28;20095;-66
2023/10/04 03:37:50;;;;;;;11.52;2.03;;;;;;;11.78;100.00;102292.19;4985363;28;20053;-66
2023/10/04 03:40:17;;;;;;;15.45;2.75;;;;;;;11.82;100.00;102290.19;4986903;28;20034;-66
2023/10/04 03:42:44;;;;;;;13.45;2.13;;;;;;;11.81;100.00;102294.56;4968475;28;20118;-66
2023/10/04 03:45:11;;;;;;;11.30;2.60;;;;;;;11.80;100.00;102286.88;4972302;28;20066;-66
2023/10/04 03:47:39;;;;;;;16.08;1.83;;;;;;;11.84;100.00;102299.47;4982923;28;20400;-66
2023/10/04 03:50:09;;;;;;;15.00;3.45;;;;;;;11.77;100.00;102287.13;4983273;28;20043;-66
2023/10/04 03:52:35;;;;;;;17.60;2.20;;;;;;;11.77;100.00;102285.38;4981984;28;20038;-66
2023/10/04 03:55:02;;;;;;;8.95;1.70;;;;;;;11.68;100.00;102280.94;4981581;28;20049;-66
2023/10/04 03:57:28;;;;;;;8.93;1.52;;;;;;;11.75;100.00;102287.25;4996654;28;20047;-66
2023/10/04 03:59:54;;;;;;;8.20;1.83;;;;;;;11.66;100.00;102281.06;4982468;28;20042;-66
2023/10/04 04:02:20;;;;;;;13.25;2.05;;;;;;;11.66;100.00;102288.03;4982178;28;20525;-66
2023/10/04 04:04:46;;;;;;;12.77;2.30;;;;;;;11.59;100.00;102303.28;4981102;28;20411;-66
2023/10/04 04:07:11;;;;;;;16.63;2.30;;;;;;;11.56;100.00;102295.75;4984378;28;20037;-67
2023/10/04 04:09:37;;;;;;;8.80;2.10;;;;;;;11.56;100.00;102307.91;4983734;28;20042;-67
2023/10/04 04:12:03;;;;;;;20.15;2.40;;;;;;;11.57;100.00;102314.78;4982851;28;20050;-67
2023/10/04 04:14:30;;;;;;;11.75;2.22;;;;;;;11.46;100.00;102308.66;4978507;28;20050;-66
2023/10/04 04:16:55;;;;;;;5.40;2.10;;;;;;;11.41;100.00;102308.19;4981325;28;20042;-67
2023/10/04 04:19:26;;;;;;;9.10;1.95;;;;;;;11.45;100.00;102311.38;4981333;28;20040;-67
2023/10/04 04:21:52;;;;;;;14.10;3.00;;;;;;;11.43;100.00;102311.53;4981026;28;20812;-66
2023/10/04 04:24:18;;;;;;;11.45;3.17;;;;;;;11.49;100.00;102312.81;4980568;28;20054;-67
2023/10/04 04:26:46;;;;;;;13.10;2.28;;;;;;;11.38;100.00;102311.06;4990601;28;20022;-67
2023/10/04 04:29:12;;;;;;;13.02;2.10;;;;;;;11.40;100.00;102303.97;4982595;28;20030;-67
2023/10/04 04:31:40;;;;;;;20.33;3.72;;;;;;;11.35;100.00;102313.91;4981869;28;20111;-66
2023/10/04 04:34:09;;;;;;;11.20;2.33;;;;;;;11.35;100.00;102308.72;4968273;28;20039;-67
2023/10/04 04:36:36;;;;;;;18.48;2.80;;;;;;;11.35;100.00;102302.69;4983596;28;20042;-67
2023/10/04 04:39:10;;;;;;;10.38;1.90;;;;;;;11.28;100.00;102303.19;5001629;28;20046;-67
2023/10/04 04:41:38;;;;;;;19.20;3.50;;;;;;;11.36;100.00;102307.78;4986185;28;20045;-66
2023/10/04 04:44:07;;;;;;;12.68;2.42;;;;;;;11.31;100.00;102302.13;4988856;28;20042;-67
2023/10/04 04:46:34;;;;;;;15.18;2.80;;;;;;;11.41;100.00;102303.00;4990917;28;20463;-67
2023/10/04 04:49:00;;;;;;;11.48;2.33;;;;;;;11.29;100.00;102296.22;4986292;28;20049;-68
2023/10/04 04:51:27;;;;;;;12.35;2.80;;;;;;;11.19;100.00;102298.75;4984907;28;20032;-66
2023/10/04 04:53:56;;;;;;;6.65;2.10;;;;;;;11.15;100.00;102299.94;4982816;28;20461;-67
2023/10/04 04:56:27;;;;;;;20.17;3.25;;;;;;;11.16;100.00;102301.59;4985512;28;20061;-67
2023/10/04 04:58:56;;;;;;;7.50;2.08;;;;;;;11.23;100.00;102309.72;4984019;28;20126;-67
2023/10/04 05:01:24;;;;;;;9.50;3.78;;;;;;;11.18;100.00;102309.25;4976926;28;20030;-67
2023/10/04 05:03:51;;;;;;;7.78;2.10;;;;;;;11.12;100.00;102304.56;4984876;28;20085;-66
2023/10/04 05:06:22;;;;;;;14.45;2.13;;;;;;;11.15;100.00;102299.09;4975534;28;20043;-67
2023/10/04 05:08:51;;;;;;;11.10;2.13;;;;;;;11.10;100.00;102302.09;4986633;28;20035;-66
2023/10/04 05:11:17;;;;;;;14.25;2.40;;;;;;;11.09;100.00;102303.88;4984753;28;20038;-67
2023/10/04 05:13:43;;;;;;;13.80;1.98;;;;;;;11.11;100.00;102293.31;4987392;28;20049;-67
2023/10/04 05:16:10;;;;;;;14.68;2.72;;;;;;;11.05;100.00;102288.63;4983781;28;20046;-67
2023/10/04 05:18:36;;;;;;;16.70;2.20;;;;;;;10.96;100.00;102295.38;4986447;28;20041;-67
2023/10/04 05:21:02;;;;;;;25.15;2.97;;;;;;;10.97;100.00;102297.03;4987491;28;20076;-67
2023/10/04 05:23:29;;;;;;;12.68;2.20;;;;;;;10.93;100.00;102310.41;4983326;28;20532;-67
2023/10/04 05:25:55;;;;;;;10.52;2.13;;;;;;;10.89;100.00;102309.81;4976395;28;20073;-67
2023/10/04 05:28:24;;;;;;;9.80;2.47;;;;;;;10.93;100.00;102311.22;4985544;28;20116;-67
2023/10/04 05:30:51;;;;;;;13.95;2.60;;;;;;;10.97;100.00;102301.41;4981047;28;20433;-67
2023/10/04 05:33:21;;;;;;;13.60;2.30;;;;;;;10.96;100.00;102310.94;4982610;28;20043;-67
2023/10/04 05:35:51;;;;;;;13.43;2.17;;;;;;;10.88;100.00;102318.53;4991822;28;20481;-67
2023/10/04 05:38:17;;;;;;;10.25;2.17;;;;;;;10.82;100.00;102316.41;4967383;28;20037;-67
2023/10/04 05:40:44;;;;;;;12.13;3.05;;;;;;;10.79;100.00;102308.88;4988464;28;20046;-67
2023/10/04 05:43:13;;;;;;;13.38;2.28;;;;;;;10.86;100.00;102302.25;4981144;28;20054;-67
2023/10/04 05:45:42;;;;;;;16.13;2.45;;;;;;;10.87;100.00;102316.91;4999303;28;20787;-65
2023/10/04 05:48:09;;;;;;;16.60;2.55;;;;;;;10.88;100.00;102319.34;4983033;28;20045;-67
2023/10/04 05:50:34;;;;;;;11.65;2.65;;;;;;;10.93;100.00;102323.38;4980598;28;20487;-68
2023/10/04 05:53:05;;;;;;;11.60;3.20;;;;;;;10.84;100.00;102319.72;4984037;28;20042;-67
2023/10/04 05:55:32;;;;;;;9.68;2.20;;;;;;;10.85;100.00;102326.53;4986815;28;20038;-67
2023/10/04 05:57:58;;;;;;;17.83;3.03;;;;;;;10.80;100.00;102331.28;4983519;28;20046;-67
2023/10/04 06:00:33;;;;;;;12.68;2.83;;;;;;;10.77;100.00;102350.50;4983596;28;20042;-67
2023/10/04 06:03:06;;;;;;;10.52;2.67;;;;;;;10.76;100.00;102361.84;4985331;28;20121;-67
2023/10/04 06:05:35;;;;;;;12.20;2.38;;;;;;;10.76;100.00;102363.63;4984198;28;20038;-66
2023/10/04 06:08:11;;;;;;;11.10;2.58;;;;;;;10.78;100.00;102364.31;4984529;28;20049;-67
2023/10/04 06:10:38;;;;;;;15.32;2.90;;;;;;;10.79;100.00;102356.38;4988328;28;20043;-68
2023/10/04 06:13:07;;;;;;;12.02;2.20;;;;;;;10.79;100.00;102347.78;4989699;28;20573;-67
2023/10/04 06:15:33;;;;;;;26.48;2.92;;;;;;;10.79;100.00;102352.97;4983135;28;20050;-67
2023/10/04 06:17:59;;;;;;;16.17;2.70;;;;;;;10.78;100.00;102348.75;4985354;28;20042;-67
2023/10/04 06:20:25;;;;;;;13.82;2.40;;;;;;;10.85;100.00;102348.16;4982545;28;20053;-67
2023/10/04 06:22:55;;;;;;;9.15;1.83;;;;;;;10.95;100.00;102353.44;4986095;28;20038;-68
2023/10/04 06:25:22;;;;;;;13.73;2.33;;;;;;;10.95;100.00;102360.41;4983234;28;20731;-68
2023/10/04 06:27:50;;;;;;;9.65;2.30;;;;;;;10.95;100.00;102366.41;4986574;28;20097;-67
2023/10/04 06:30:20;;;;;;;11.60;2.28;;;;;;;10.94;100.00;102372.53;4979739;28;20141;-68
2023/10/04 06:32:49;;;;;;;21.17;2.97;;;;;;;11.01;100.00;102375.50;4974699;28;20042;-68
2023/10/04 06:35:16;;;;;;;12.57;2.80;;;;;;;11.16;100.00;102378.66;4983310;28;20042;-67
2023/10/04 06:37:41;;;;;;;35.60;13.23;;;;;;;11.24;100.00;102381.47;4985594;28;20092;-68
2023/10/04 06:40:14;;;;;;;19.48;3.10;;;;;;;11.38;100.00;102390.75;4985194;28;20642;-68
2023/10/04 06:42:40;;;;;;;20.30;2.83;;;;;;;11.62;100.00;102383.59;4984441;28;20042;-68
2023/10/04 06:45:07;;;;;;;10.63;2.22;;;;;;;11.84;100.00;102381.84;4986488;28;20049;-68
2023/10/04 06:47:34;;;;;;;12.82;3.20;;;;;;;12.16;100.00;102391.38;4981226;28;20121;-68
2023/10/04 06:50:00;;;;;;;11.50;2.53;;;;;;;12.40;100.00;102393.72;4984167;28;20054;-68
2023/10/04 06:52:26;;;;;;;10.95;2.28;;;;;;;12.65;100.00;102395.88;4975043;28;20494;-68
2023/10/04 06:54:52;;;;;;;11.23;2.10;;;;;;;12.97;100.00;102396.66;4981579;28;20101;-68
2023/10/04 06:57:18;;;;;;;13.35;2.42;;;;;;;13.18;98.71;102397.38;4982901;28;20088;-67
2023/10/04 06:59:44;;;;;;;9.05;2.22;;;;;;;13.39;96.87;102399.09;4997755;28;20038;-67
2023/10/04 07:02:10;;;;;;;15.13;2.33;;;;;;;13.71;95.43;102398.88;4983670;28;20113;-68
2023/10/04 07:04:35;;;;;;;14.18;2.42;;;;;;;13.81;93.54;102404.06;4984090;28;20088;-67
2023/10/04 07:07:01;;;;;;;11.88;2.38;;;;;;;14.07;92.67;102408.69;4981563;28;20053;-68
2023/10/04 07:09:30;;;;;;;14.23;2.58;;;;;;;14.33;90.35;102404.50;4973332;28;20042;-68
2023/10/04 07:11:56;;;;;;;11.73;2.88;;;;;;;14.55;89.58;102405.94;4981142;28;20034;-68
2023/10/04 07:14:21;;;;;;;14.70;2.47;;;;;;;14.76;87.76;102410.97;4978988;28;20046;-68
2023/10/04 07:16:47;;;;;;;13.45;2.42;;;;;;;14.95;86.88;102417.09;4978002;28;20038;-68
2023/10/04 07:19:14;;;;;;;10.60;2.55;;;;;;;15.05;85.38;102417.03;4984477;28;20030;-68
2023/10/04 07:21:40;;;;;;;12.18;2.78;;;;;;;15.15;86.26;102415.19;4984761;28;20117;-68
2023/10/04 07:24:06;;;;;;;14.40;2.17;;;;;;;15.18;85.04;102423.56;4981310;28;20132;-68
2023/10/04 07:26:35;;;;;;;10.60;2.65;;;;;;;15.49;84.38;102417.16;4982988;28;20100;-68
2023/10/04 07:29:02;;;;;;;9.80;1.92;;;;;;;15.74;82.73;102423.47;4983631;28;20054;-68
2023/10/04 07:31:27;;;;;;;14.63;2.17;;;;;;;15.67;81.79;102428.44;4982733;28;20094;-68
2023/10/04 07:33:53;;;;;;;11.25;2.15;;;;;;;15.82;81.73;102420.09;4981538;28;20038;-68
2023/10/04 07:36:19;;;;;;;12.77;2.60;;;;;;;15.96;80.60;102424.78;4963815;28;20125;-67
2023/10/04 07:38:45;;;;;;;15.90;2.03;;;;;;;16.06;80.89;102435.16;4982136;28;20030;-67
2023/10/04 07:41:11;;;;;;;12.55;2.35;;;;;;;16.19;79.44;102432.94;4988002;28;20121;-67
2023/10/04 07:43:37;;;;;;;16.20;2.53;;;;;;;16.38;79.15;102429.31;4982853;28;20125;-67
2023/10/04 07:46:03;;;;;;;11.00;2.10;;;;;;;16.47;78.01;102425.75;4963167;28;20039;-68
2023/10/04 07:48:29;;;;;;;9.70;2.00;;;;;;;16.63;78.54;102426.81;4983883;28;20709;-68
2023/10/04 07:50:55;;;;;;;11.82;2.15;;;;;;;16.88;77.18;102438.25;4986617;28;20043;-67
2023/10/04 07:53:21;;;;;;;13.45;2.70;;;;;;;16.66;77.15;102429.13;4983459;28;20038;-68
2023/10/04 07:55:49;;;;;;;10.15;2.10;;;;;;;16.78;76.59;102424.41;4982829;28;20042;-67
2023/10/04 07:58:15;;;;;;;15.82;2.63;;;;;;;16.88;76.69;102422.53;4981342;28;22108;-68
2023/10/04 08:00:41;;;;;;;11.80;2.75;;;;;;;16.74;77.11;102434.38;4982340;28;20046;-67
2023/10/04 08:03:08;;;;;;;13.80;2.20;;;;;;;16.82;77.88;102430.97;4981588;28;20046;-68
2023/10/04 08:05:35;;;;;;;12.68;2.45;;;;;;;17.04;76.78;102427.81;4995756;28;20054;-68
2023/10/04 08:08:02;;;;;;;7.00;2.10;;;;;;;17.33;75.02;102426.59;4981330;28;20441;-67
2023/10/04 08:10:29;;;;;;;11.77;2.75;;;;;;;17.41;75.42;102431.84;4980158;28;20038;-67
2023/10/04 08:12:59;;;;;;;12.20;2.30;;;;;;;17.57;73.64;102422.34;4987310;28;20104;-68
2023/10/04 08:15:26;;;;;;;15.48;3.15;;;;;;;17.59;74.66;102425.63;4987828;28;20128;-67
2023/10/04 08:17:52;;;;;;;12.65;4.28;;;;;;;17.96;72.50;102417.28;4985236;28;20153;-68
2023/10/04 08:20:20;;;;;;;9.95;3.00;;;;;;;18.12;71.60;102420.88;4985293;28;20038;-67
2023/10/04 08:22:46;;;;;;;12.98;2.50;;;;;;;18.42;71.26;102425.41;4988131;28;20408;-67
2023/10/04 08:25:14;;;;;;;12.65;2.38;;;;;;;18.25;70.24;102434.31;4989054;28;20042;-68
2023/10/04 08:27:40;;;;;;;13.63;2.40;;;;;;;18.08;72.03;102428.25;4986740;28;20030;-67
2023/10/04 08:30:06;;;;;;;11.98;1.92;;;;;;;18.07;71.88;102430.06;4984637;28;20050;-68
2023/10/04 08:32:33;;;;;;;10.60;2.40;;;;;;;18.36;69.85;102438.38;4986528;28;20046;-67
2023/10/04 08:34:59;;;;;;;10.27;2.25;;;;;;;18.45;70.92;102437.38;4988844;28;20045;-68
2023/10/04 08:37:26;;;;;;;7.90;2.17;;;;;;;18.62;69.32;102440.78;4987978;28;20436;-68
2023/10/04 08:39:52;;;;;;;10.40;2.22;;;;;;;18.61;70.16;102445.22;4986782;28;20044;-68
2023/10/04 08:42:18;;;;;;;15.57;2.78;;;;;;;18.57;69.71;102438.66;4983385;28;20038;-68
2023/10/04 08:44:45;;;;;;;12.32;2.70;;;;;;;18.49;70.67;102444.75;4973915;28;20042;-68
2023/10/04 08:47:12;;;;;;;10.27;2.53;;;;;;;18.45;71.17;102442.63;4967197;28;20037;-68
2023/10/04 08:49:52;;;;;;;13.32;2.35;;;;;;;18.30;71.17;102439.88;4987766;28;20509;-68
2023/10/04 08:52:35;;;;;;;13.40;3.03;;;;;;;18.32;71.37;102447.59;4992390;28;20046;-68
2023/10/04 08:55:07;;;;;;;11.65;2.30;;;;;;;18.15;71.80;102439.75;4986026;28;20046;-68
2023/10/04 08:57:39;;;;;;;11.82;2.55;;;;;;;18.03;73.05;102441.09;4986499;28;20457;-68
2023/10/04 09:00:14;;;;;;;12.60;3.13;;;;;;;18.01;73.96;102446.50;4983566;28;20038;-68
2023/10/04 09:02:44;;;;;;;13.55;1.77;;;;;;;18.03;76.30;102443.72;4985554;28;20042;-68
2023/10/04 09:05:13;;;;;;;11.50;2.60;;;;;;;18.16;72.68;102449.25;4985416;28;20085;-68
2023/10/04 09:07:39;;;;;;;11.40;2.95;;;;;;;17.89;73.68;102445.16;4980484;28;20102;-68
2023/10/04 09:10:06;;;;;;;10.10;2.65;;;;;;;17.72;73.58;102449.56;4982826;28;20042;-67
2023/10/04 09:12:31;;;;;;;18.48;2.90;;;;;;;17.57;75.18;102438.91;4987536;28;20401;-68
2023/10/04 09:14:57;;;;;;;7.78;2.30;;;;;;;17.59;75.70;102434.31;4986098;28;20057;-67
2023/10/04 09:17:25;;;;;;;12.93;2.50;;;;;;;17.49;76.94;102437.09;4987067;28;20052;-67
2023/10/04 09:19:52;;;;;;;11.23;2.50;;;;;;;17.60;76.45;102435.97;4989118;28;20042;-68
2023/10/04 09:22:29;;;;;;;11.45;3.03;;;;;;;17.45;77.53;102443.63;4986650;28;20030;-67
2023/10/04 09:24:56;;;;;;;14.57;3.20;;;;;;;17.48;78.02;102445.13;4987917;28;20038;-68
2023/10/04 09:27:25;;;;;;;11.15;2.13;;;;;;;17.28;77.11;102437.56;4987839;28;20054;-68
2023/10/04 09:29:53;;;;;;;13.10;2.08;;;;;;;17.22;77.98;102448.69;4985499;28;20039;-68
2023/10/04 09:32:38;;;;;;;11.68;2.70;;;;;;;17.37;78.63;102442.81;4985351;28;20056;-68
2023/10/04 09:35:04;;;;;;;13.35;2.63;;;;;;;17.50;78.00;102443.16;4980900;28;20129;-67
2023/10/04 09:37:29;;;;;;;17.40;2.88;;;;;;;17.57;77.62;102446.75;4988379;28;20101;-67
2023/10/04 09:40:12;;;;;;;16.92;3.13;;;;;;;17.62;77.34;102447.09;4991495;28;20038;-67
2023/10/04 09:42:51;;;;;;;15.63;2.67;;;;;;;17.42;78.90;102440.53;4975534;28;20036;-68
2023/10/04 09:45:26;;;;;;;17.50;2.88;;;;;;;17.42;75.96;102443.13;4985332;28;20038;-67
2023/10/04 09:47:55;;;;;;;14.23;3.17;;;;;;;17.41;77.42;102449.38;4984914;28;20043;-68
2023/10/04 09:50:23;;;;;;;15.85;2.83;;;;;;;17.33;77.60;102444.94;4975158;28;20054;-67
2023/10/04 09:52:49;;;;;;;14.98;2.47;;;;;;;17.52;76.17;102444.63;4986866;28;20097;-67
2023/10/04 09:55:15;;;;;;;13.38;2.40;;;;;;;17.50;76.59;102445.78;4987859;28;20567;-67
2023/10/04 09:57:44;;;;;;;11.30;3.33;;;;;;;17.52;76.81;102452.50;4986571;28;20037;-67
2023/10/04 10:00:17;;;;;;;10.45;2.33;;;;;;;17.62;77.32;102444.47;4969662;28;20058;-68
2023/10/04 10:02:49;;;;;;;;;;;;;;;17.55;78.19;102438.25;4983173;28;20034;-67
2023/10/04 10:05:26;;;;;;;13.20;2.38;;;;;;;17.55;74.93;102446.09;4983669;28;19992;-67
2023/10/04 10:07:53;;;;;;;8.57;1.95;;;;;;;17.60;75.75;102443.81;4983651;28;20049;-67
2023/10/04 10:10:21;;;;;;;11.75;2.67;;;;;;;17.60;73.98;102441.22;4978698;28;20042;-68
2023/10/04 10:12:51;;;;;;;10.88;2.47;;;;;;;17.70;74.83;102433.16;4985984;28;20108;-67
2023/10/04 10:15:18;;;;;;;9.73;2.38;;;;;;;17.70;75.91;102431.38;4988727;28;20046;-67
2023/10/04 10:17:48;;;;;;;8.82;2.33;;;;;;;17.82;73.62;102418.75;4986212;28;20046;-68
2023/10/04 10:20:16;;;;;;;12.10;2.63;;;;;;;17.62;74.24;102418.25;4989711;28;20038;-67
2023/10/04 10:22:57;;;;;;;10.70;3.08;;;;;;;17.65;74.45;102417.09;4985571;28;20041;-67
2023/10/04 10:25:25;;;;;;;13.60;4.30;;;;;;;17.65;73.44;102417.09;4984334;28;20049;-67
2023/10/04 10:28:12;;;;;;;12.40;3.10;;;;;;;17.70;72.81;102417.44;4987300;28;20640;-67
2023/10/04 10:30:38;;;;;;;11.27;3.03;;;;;;;17.69;73.68;102418.44;4976521;28;20050;-67
2023/10/04 10:33:06;;;;;;;13.43;3.15;;;;;;;17.75;72.63;102411.72;5000851;23;20496;-67
2023/10/04 10:35:51;;;;;;;10.20;2.65;;;;;;;17.96;72.68;102414.66;4979594;28;20063;-67
2023/10/04 10:38:40;;;;;;;10.07;2.65;;;;;;;18.04;70.44;102409.41;4982475;28;20042;-65
2023/10/04 10:41:06;;;;;;;16.70;4.03;;;;;;;17.76;70.87;102413.34;4977121;28;20034;-67
2023/10/04 10:43:35;;;;;;;12.38;2.55;;;;;;;17.92;71.04;102421.25;4999002;28;20177;-67
2023/10/04 10:46:26;;;;;;;13.15;2.38;;;;;;;17.81;69.10;102421.53;4980433;28;20046;-67
2023/10/04 10:48:57;;;;;;;11.43;2.55;;;;;;;17.64;69.57;102433.84;4967055;28;20073;-67
2023/10/04 10:51:42;;;;;;;9.40;3.10;;;;;;;17.55;72.04;102432.19;4985948;28;20050;-66
2023/10/04 10:54:08;;;;;;;6.90;2.30;;;;;;;17.51;70.64;102422.00;4983941;28;20046;-67
2023/10/04 10:56:37;;;;;;;12.13;2.45;;;;;;;17.48;72.24;102429.41;4964666;28;20035;-66
2023/10/04 10:59:04;;;;;;;10.57;3.17;;;;;;;17.50;72.00;102424.81;4964662;28;20028;-67
2023/10/04 11:01:31;;;;;;;13.27;2.53;;;;;;;17.49;72.35;102423.97;4980984;28;20030;-67
2023/10/04 11:03:58;;;;;;;11.43;2.70;;;;;;;17.60;71.83;102422.84;4982962;28;20034;-67
2023/10/04 11:06:23;;;;;;;8.52;2.70;;;;;;;17.66;71.57;102429.25;4980886;28;20042;-67
2023/10/04 11:08:49;;;;;;;12.75;3.28;;;;;;;17.63;70.77;102429.56;4978944;28;20027;-67
2023/10/04 11:11:14;;;;;;;10.45;2.78;;;;;;;17.65;71.28;102425.81;4978043;28;20047;-67
2023/10/04 11:13:43;;;;;;;8.55;2.88;;;;;;;17.54;70.66;102434.00;4981332;28;20632;-67
2023/10/04 11:16:09;;;;;;;11.77;2.80;;;;;;;17.52;69.69;102425.47;4978474;28;20050;-67
2023/10/04 11:18:35;;;;;;;9.07;3.08;;;;;;;17.50;70.43;102423.00;4980604;28;20112;-67